Time;durP1;ratioP1;P1;durP2;ratioP2;P2;SDS_P1;SDS_P2;PMS_P1;PMS_P2;Temp;Humidity;BMP_temperature;BMP_pressure;BME280_temperature;BME280_humidity;BME280_pressure;Samples;Min_cycle;Max_cycle;Signal;HPM_P1;HPM_P2
2021/09/11 00:00:18;;;;;;;43.00;40.73;;;18.00;99.90;;;;;;5052674;28;20544;-66
2021/09/11 00:02:45;;;;;;;14.33;13.23;;;18.00;99.90;;;;;;5057864;28;20266;-66
2021/09/11 00:05:12;;;;;;;46.33;44.00;;;18.00;99.90;;;;;;5073130;28;20194;-66
2021/09/11 00:07:38;;;;;;;11.97;10.97;;;18.00;99.90;;;;;;5069374;28;20175;-65
2021/09/11 00:10:06;;;;;;;12.90;11.80;;;17.90;99.90;;;;;;5052748;28;20228;-66
2021/09/11 00:12:31;;;;;;;19.57;18.13;;;18.00;99.90;;;;;;5054802;28;20182;-67
2021/09/11 00:14:57;;;;;;;20.07;18.80;;;18.00;99.90;;;;;;5055992;28;20202;-68
2021/09/11 00:17:23;;;;;;;13.43;10.47;;;18.00;99.90;;;;;;5052958;28;20656;-65
2021/09/11 00:19:48;;;;;;;13.97;12.87;;;18.00;99.90;;;;;;5072300;28;20260;-66
2021/09/11 00:22:14;;;;;;;11.10;10.10;;;18.10;99.90;;;;;;5072618;28;20284;-66
2021/09/11 00:24:39;;;;;;;11.90;10.80;;;18.10;99.90;;;;;;5053766;28;20202;-66
2021/09/11 00:27:05;;;;;;;13.67;12.57;;;18.10;99.90;;;;;;5052680;28;20186;-65
2021/09/11 00:29:32;;;;;;;12.53;11.43;;;18.20;99.90;;;;;;5068930;28;20186;-66
2021/09/11 00:31:58;;;;;;;11.13;10.23;;;18.20;99.90;;;;;;5058936;28;20174;-66
2021/09/11 00:34:24;;;;;;;12.23;11.03;;;18.20;99.90;;;;;;5052970;28;20170;-66
2021/09/11 00:36:50;;;;;;;12.43;11.47;;;18.20;99.90;;;;;;5072526;28;20224;-66
2021/09/11 00:39:16;;;;;;;12.47;11.47;;;18.20;99.90;;;;;;5072144;28;20178;-67
2021/09/11 00:41:41;;;;;;;11.20;10.20;;;18.20;99.90;;;;;;5052408;28;20209;-67
2021/09/11 00:44:07;;;;;;;14.43;13.33;;;18.20;99.90;;;;;;5052208;28;20312;-67
2021/09/11 00:46:33;;;;;;;18.10;16.63;;;18.20;99.90;;;;;;5070353;28;20213;-66
2021/09/11 00:48:58;;;;;;;18.53;17.33;;;18.10;99.90;;;;;;5062368;28;20178;-67
2021/09/11 00:51:24;;;;;;;14.70;13.60;;;18.20;99.90;;;;;;5052274;28;20651;-65
2021/09/11 00:53:50;;;;;;;11.73;10.63;;;18.20;99.90;;;;;;5059960;28;20211;-65
2021/09/11 00:56:16;;;;;;;12.93;11.30;;;18.20;99.90;;;;;;5060713;28;20206;-65
2021/09/11 00:58:42;;;;;;;14.80;13.60;;;18.30;99.90;;;;;;5058077;28;20177;-65
2021/09/11 01:01:08;;;;;;;15.23;13.83;;;18.30;99.90;;;;;;5071896;28;20189;-65
2021/09/11 01:03:34;;;;;;;15.40;14.20;;;18.40;99.90;;;;;;5067151;28;20179;-66
2021/09/11 01:06:00;;;;;;;12.80;11.30;;;18.50;99.90;;;;;;5051990;28;20241;-66
2021/09/11 01:08:27;;;;;;;20.40;19.00;;;18.50;99.90;;;;;;5054603;28;20258;-65
2021/09/11 01:10:53;;;;;;;13.60;12.43;;;18.60;99.90;;;;;;5071943;28;20424;-66
2021/09/11 01:13:19;;;;;;;13.33;12.10;;;18.60;99.90;;;;;;5068837;28;20315;-66
2021/09/11 01:15:44;;;;;;;13.07;11.87;;;18.60;99.90;;;;;;5051689;28;20206;-65
2021/09/11 01:18:11;;;;;;;13.77;12.67;;;18.60;99.90;;;;;;5051713;28;20654;-66
2021/09/11 01:20:38;;;;;;;13.70;12.57;;;18.70;99.90;;;;;;5071077;28;20189;-66
2021/09/11 01:23:04;;;;;;;17.17;14.63;;;18.70;99.90;;;;;;5071946;28;20166;-66
2021/09/11 01:25:29;;;;;;;16.07;14.53;;;18.70;99.90;;;;;;5053053;28;20256;-67
2021/09/11 01:27:55;;;;;;;16.00;14.43;;;18.70;99.90;;;;;;5065944;28;20190;-66
2021/09/11 01:30:22;;;;;;;15.50;14.00;;;18.70;99.90;;;;;;5071025;28;20181;-66
2021/09/11 01:32:49;;;;;;;15.87;14.47;;;18.70;99.90;;;;;;5057907;28;20175;-66
2021/09/11 01:35:15;;;;;;;18.20;16.40;;;18.70;99.90;;;;;;5051538;28;20546;-65
2021/09/11 01:37:41;;;;;;;17.20;15.43;;;18.80;99.90;;;;;;5062821;28;20301;-65
2021/09/11 01:40:08;;;;;;;15.97;14.47;;;18.70;99.90;;;;;;5071194;28;20525;-68
2021/09/11 01:42:34;;;;;;;16.20;14.70;;;18.70;99.90;;;;;;5061155;28;20183;-67
2021/09/11 01:45:14;;;;;;;17.20;15.50;;;18.60;99.90;;;;;;5051366;28;20339;-67
2021/09/11 01:47:42;;;;;;;19.17;17.17;;;18.50;99.90;;;;;;5061520;28;20228;-66
2021/09/11 01:50:09;;;;;;;19.80;17.83;;;18.50;99.90;;;;;;5071228;28;20633;-66
2021/09/11 01:52:35;;;;;;;19.17;17.17;;;18.50;99.90;;;;;;5062169;28;20267;-65
2021/09/11 01:55:00;;;;;;;20.63;18.57;;;18.50;99.90;;;;;;5056321;28;20229;-67
2021/09/11 01:57:27;;;;;;;25.43;18.93;;;18.50;99.90;;;;;;5071353;28;20284;-67
2021/09/11 01:59:52;;;;;;;22.80;19.80;;;18.50;99.90;;;;;;5067195;28;20191;-67
2021/09/11 02:02:18;;;;;;;22.97;20.67;;;18.60;99.90;;;;;;5052222;28;20253;-66
2021/09/11 02:04:44;;;;;;;23.87;21.37;;;18.60;99.90;;;;;;5052851;28;20203;-65
2021/09/11 02:07:09;;;;;;;24.43;20.83;;;18.50;99.90;;;;;;5071317;28;20638;-66
2021/09/11 02:09:36;;;;;;;23.53;20.37;;;18.60;99.90;;;;;;5070681;28;20265;-68
2021/09/11 02:12:02;;;;;;;24.53;20.70;;;18.60;99.90;;;;;;5071596;28;20173;-65
2021/09/11 02:14:28;;;;;;;21.77;19.47;;;18.70;99.90;;;;;;5071084;28;20174;-66
2021/09/11 02:16:53;;;;;;;26.07;23.47;;;18.70;99.90;;;;;;5070480;28;20220;-66
2021/09/11 02:19:19;;;;;;;23.03;20.53;;;18.70;99.90;;;;;;5071033;28;20197;-66
2021/09/11 02:21:45;;;;;;;24.43;20.03;;;18.80;99.90;;;;;;5053823;28;20197;-65
2021/09/11 02:24:10;;;;;;;24.00;20.93;;;18.90;99.90;;;;;;5064270;28;20182;-65
2021/09/11 02:26:36;;;;;;;25.87;21.33;;;18.90;99.90;;;;;;5071101;28;20574;-66
2021/09/11 02:29:03;;;;;;;23.20;20.70;;;18.90;99.90;;;;;;5059283;28;20187;-66
2021/09/11 02:31:28;;;;;;;23.30;20.70;;;18.90;99.90;;;;;;5050854;28;20233;-66
2021/09/11 02:33:54;;;;;;;24.83;20.77;;;18.90;99.90;;;;;;5060693;28;20190;-66
2021/09/11 02:36:20;;;;;;;27.23;20.90;;;18.80;99.90;;;;;;5070966;28;20234;-66
2021/09/11 02:38:46;;;;;;;24.63;20.97;;;18.80;99.90;;;;;;5062318;28;20183;-65
2021/09/11 02:41:12;;;;;;;30.70;24.23;;;18.70;99.90;;;;;;5050653;28;20171;-66
2021/09/11 02:43:38;;;;;;;27.53;22.53;;;18.70;99.90;;;;;;5060159;28;20174;-68
2021/09/11 02:46:03;;;;;;;30.20;23.33;;;18.70;99.90;;;;;;5074738;28;20209;-66
2021/09/11 02:48:29;;;;;;;33.53;25.73;;;18.70;99.90;;;;;;5059583;28;20582;-66
2021/09/11 02:50:55;;;;;;;33.17;26.33;;;18.70;99.90;;;;;;5053877;28;20210;-65
2021/09/11 02:53:20;;;;;;;37.20;26.67;;;18.70;99.90;;;;;;5074086;28;20178;-66
2021/09/11 02:55:46;;;;;;;35.13;26.20;;;18.60;99.90;;;;;;5074010;28;20751;-65
2021/09/11 02:58:11;;;;;;;32.00;24.90;;;18.60;99.90;;;;;;5054816;28;20421;-65
2021/09/11 03:00:37;;;;;;;37.07;26.27;;;18.60;99.90;;;;;;5053994;28;20182;-65
2021/09/11 03:03:03;;;;;;;35.80;26.20;;;18.50;99.90;;;;;;5071944;28;20753;-65
2021/09/11 03:05:28;;;;;;;42.43;28.47;;;18.50;99.90;;;;;;5074220;28;20537;-65
2021/09/11 03:07:54;;;;;;;38.87;30.63;;;18.50;99.90;;;;;;5058072;28;20190;-65
2021/09/11 03:10:20;;;;;;;37.10;28.77;;;18.50;99.90;;;;;;5053739;28;20210;-65
2021/09/11 03:12:45;;;;;;;41.27;34.90;;;18.60;99.90;;;;;;5068049;28;20220;-65
2021/09/11 03:15:12;;;;;;;29.87;24.20;;;18.60;99.90;;;;;;5073989;28;20190;-65
2021/09/11 03:17:38;;;;;;;33.73;24.00;;;18.50;99.90;;;;;;5061117;28;20249;-65
2021/09/11 03:20:04;;;;;;;33.93;25.70;;;18.50;99.90;;;;;;5061147;28;20639;-65
2021/09/11 03:22:30;;;;;;;33.60;25.03;;;18.50;99.90;;;;;;5073783;28;20545;-65
2021/09/11 03:24:55;;;;;;;36.97;24.47;;;18.50;99.90;;;;;;5066111;28;20201;-65
2021/09/11 03:27:21;;;;;;;33.77;26.53;;;18.50;99.90;;;;;;5054026;28;20171;-65
2021/09/11 03:29:46;;;;;;;31.73;25.07;;;18.50;99.90;;;;;;5058827;28;20177;-64
2021/09/11 03:32:12;;;;;;;31.63;23.63;;;18.50;99.90;;;;;;5073852;28;20171;-65
2021/09/11 03:34:38;;;;;;;32.43;24.07;;;18.50;99.90;;;;;;5073143;28;20195;-66
2021/09/11 03:37:03;;;;;;;26.93;21.57;;;18.50;99.90;;;;;;5073562;28;20659;-67
2021/09/11 03:39:29;;;;;;;27.90;20.93;;;18.50;99.90;;;;;;5071838;28;20217;-66
2021/09/11 03:41:55;;;;;;;24.30;18.70;;;18.50;99.90;;;;;;5073240;28;20173;-66
2021/09/11 03:44:21;;;;;;;24.43;18.07;;;18.50;99.90;;;;;;5060473;28;20236;-66
2021/09/11 03:46:47;;;;;;;21.60;17.10;;;18.50;99.90;;;;;;5053461;28;20170;-65
2021/09/11 03:49:12;;;;;;;18.67;14.73;;;18.40;99.90;;;;;;5069783;28;20654;-66
2021/09/11 03:51:38;;;;;;;15.73;14.13;;;18.40;99.90;;;;;;5073105;28;20170;-66
2021/09/11 03:54:04;;;;;;;15.50;13.60;;;18.30;99.90;;;;;;5057783;28;20661;-66
2021/09/11 03:56:29;;;;;;;14.27;12.27;;;18.20;99.90;;;;;;5052946;28;20349;-66
2021/09/11 03:58:55;;;;;;;14.47;12.87;;;18.20;99.90;;;;;;5065829;28;20543;-66
2021/09/11 04:01:21;;;;;;;15.83;12.13;;;18.20;99.90;;;;;;5073012;28;20174;-66
2021/09/11 04:03:47;;;;;;;14.07;12.63;;;18.20;99.90;;;;;;5061954;28;20206;-66
2021/09/11 04:06:12;;;;;;;16.73;12.93;;;18.20;99.90;;;;;;5053055;28;20663;-66
2021/09/11 04:08:38;;;;;;;13.47;12.10;;;18.10;99.90;;;;;;5061862;28;20189;-65
2021/09/11 04:11:04;;;;;;;16.83;13.63;;;18.10;99.90;;;;;;5073002;28;20422;-65
2021/09/11 04:13:30;;;;;;;14.37;12.87;;;18.10;99.90;;;;;;5064193;28;20273;-66
2021/09/11 04:15:56;;;;;;;15.90;12.57;;;18.00;99.90;;;;;;5067189;28;20194;-66
2021/09/11 04:18:21;;;;;;;14.63;12.17;;;18.00;99.90;;;;;;5067189;28;20175;-66
2021/09/11 04:20:47;;;;;;;13.10;11.80;;;17.90;99.90;;;;;;5052485;28;20575;-66
2021/09/11 04:23:13;;;;;;;14.57;12.30;;;17.90;99.90;;;;;;5056207;28;20257;-67
2021/09/11 04:25:38;;;;;;;14.00;12.50;;;17.90;99.90;;;;;;5072683;28;20194;-65
2021/09/11 04:28:04;;;;;;;12.80;11.70;;;17.80;99.90;;;;;;5070843;28;20710;-66
2021/09/11 04:30:30;;;;;;;11.87;10.80;;;17.80;99.90;;;;;;5052296;28;20229;-66
2021/09/11 04:32:55;;;;;;;11.67;10.57;;;17.80;99.90;;;;;;5052371;28;20175;-66
2021/09/11 04:35:21;;;;;;;11.97;10.83;;;17.70;99.90;;;;;;5072206;28;20190;-67
2021/09/11 04:37:47;;;;;;;11.50;10.50;;;17.70;99.90;;;;;;5071494;28;20620;-66
2021/09/11 04:40:13;;;;;;;18.23;11.57;;;17.70;99.90;;;;;;5053981;28;20655;-65
2021/09/11 04:42:39;;;;;;;12.77;11.50;;;17.60;99.90;;;;;;5054380;28;20232;-66
2021/09/11 04:45:05;;;;;;;14.07;12.20;;;17.60;99.90;;;;;;5072372;28;20198;-66
2021/09/11 04:47:30;;;;;;;12.23;11.07;;;17.60;99.90;;;;;;5059720;28;20652;-66
2021/09/11 04:49:56;;;;;;;13.00;11.70;;;17.60;99.90;;;;;;5052124;28;20182;-65
2021/09/11 04:52:22;;;;;;;13.20;11.80;;;17.60;99.90;;;;;;5062349;28;20190;-66
2021/09/11 04:54:47;;;;;;;12.80;11.43;;;17.50;99.90;;;;;;5090221;22;20206;-69
2021/09/11 04:57:13;;;;;;;11.83;10.60;;;17.50;99.90;;;;;;5019783;28;20214;-67
2021/09/11 04:59:39;;;;;;;12.70;10.17;;;17.50;99.90;;;;;;5031899;28;20667;-67
2021/09/11 05:02:05;;;;;;;11.87;10.67;;;17.50;99.90;;;;;;5025030;28;20272;-67
2021/09/11 05:04:31;;;;;;;12.43;10.50;;;17.40;99.90;;;;;;5011136;28;20251;-67
2021/09/11 05:06:58;;;;;;;13.20;10.67;;;17.40;99.90;;;;;;5016185;28;20261;-67
2021/09/11 05:09:24;;;;;;;12.20;10.97;;;17.40;99.90;;;;;;5030507;28;20179;-68
2021/09/11 05:11:50;;;;;;;11.67;10.37;;;17.40;99.90;;;;;;5029271;28;20182;-70
2021/09/11 05:14:16;;;;;;;15.30;10.87;;;17.40;99.90;;;;;;5010947;28;20226;-68
2021/09/11 05:16:41;;;;;;;12.10;10.33;;;17.40;99.90;;;;;;5016350;28;20261;-68
2021/09/11 05:19:07;;;;;;;11.70;10.43;;;17.40;99.90;;;;;;5013121;28;20254;-68
2021/09/11 05:21:32;;;;;;;10.63;9.70;;;17.40;99.90;;;;;;5015994;28;20175;-68
2021/09/11 05:23:59;;;;;;;11.07;9.93;;;17.30;99.90;;;;;;5032638;28;20229;-67
2021/09/11 05:26:24;;;;;;;11.43;10.33;;;17.30;99.90;;;;;;5029742;28;20794;-67
2021/09/11 05:28:50;;;;;;;11.00;10.10;;;17.30;99.90;;;;;;5012617;28;20172;-68
2021/09/11 05:31:16;;;;;;;12.63;10.27;;;17.40;99.90;;;;;;5012534;28;20192;-67
2021/09/11 05:33:41;;;;;;;10.80;9.70;;;17.40;99.90;;;;;;5031116;28;20171;-67
2021/09/11 05:36:07;;;;;;;12.27;10.40;;;17.40;99.90;;;;;;5031612;28;20550;-68
2021/09/11 05:38:33;;;;;;;10.17;9.13;;;17.50;99.90;;;;;;5013886;28;20638;-67
2021/09/11 05:40:58;;;;;;;9.83;8.80;;;17.50;99.90;;;;;;5012181;28;20176;-69
2021/09/11 05:43:24;;;;;;;10.63;9.50;;;17.60;99.90;;;;;;5028390;28;20179;-69
2021/09/11 05:45:50;;;;;;;10.93;9.97;;;17.60;99.90;;;;;;5029687;28;20310;-67
2021/09/11 05:48:16;;;;;;;9.80;8.87;;;17.60;99.90;;;;;;5031598;28;20258;-67
2021/09/11 05:50:42;;;;;;;9.90;8.83;;;17.70;99.90;;;;;;5020102;28;20195;-67
2021/09/11 05:53:07;;;;;;;9.33;8.00;;;17.70;99.90;;;;;;5011714;28;20591;-67
2021/09/11 05:55:33;;;;;;;8.33;7.63;;;17.70;99.90;;;;;;5012840;28;20250;-67
2021/09/11 05:57:58;;;;;;;8.10;7.30;;;17.80;99.90;;;;;;5011568;28;20235;-67
2021/09/11 06:00:24;;;;;;;9.07;8.17;;;17.80;99.90;;;;;;5018311;28;20179;-67
2021/09/11 06:02:50;;;;;;;9.03;8.23;;;18.00;99.90;;;;;;5031298;28;20195;-67
2021/09/11 06:05:15;;;;;;;8.20;7.47;;;18.00;99.90;;;;;;5027461;28;20286;-67
2021/09/11 06:07:42;;;;;;;8.97;8.13;;;18.10;99.90;;;;;;5021056;28;20176;-67
2021/09/11 06:10:09;;;;;;;9.70;7.93;;;18.20;99.90;;;;;;5023024;28;20190;-67
2021/09/11 06:12:34;;;;;;;8.07;7.33;;;18.30;99.90;;;;;;5023853;28;20600;-67
2021/09/11 06:15:00;;;;;;;8.30;7.60;;;18.30;99.90;;;;;;5011804;28;20207;-67
2021/09/11 06:17:25;;;;;;;8.00;7.30;;;18.40;99.90;;;;;;5014763;28;20215;-66
2021/09/11 06:19:51;;;;;;;7.73;6.93;;;18.40;99.90;;;;;;5022434;28;20237;-66
2021/09/11 06:22:17;;;;;;;8.23;7.47;;;18.40;99.90;;;;;;5036714;28;20682;-68
2021/09/11 06:24:42;;;;;;;7.67;6.97;;;18.40;99.90;;;;;;5030856;28;20176;-67
2021/09/11 06:27:08;;;;;;;7.97;7.17;;;18.40;99.90;;;;;;5015959;28;20641;-67
2021/09/11 06:29:34;;;;;;;7.17;6.50;;;18.40;99.90;;;;;;5019122;28;20176;-67
2021/09/11 06:32:00;;;;;;;7.60;7.10;;;18.40;99.90;;;;;;5035306;28;20170;-67
2021/09/11 06:34:26;;;;;;;7.67;6.90;;;18.50;99.90;;;;;;5014372;28;20180;-67
2021/09/11 06:36:52;;;;;;;6.97;6.47;;;18.60;99.90;;;;;;5014670;28;20378;-67
2021/09/11 06:39:18;;;;;;;6.57;5.97;;;18.60;99.90;;;;;;4995437;28;20256;-67
2021/09/11 06:41:43;;;;;;;7.17;6.47;;;18.70;99.90;;;;;;4995294;28;20184;-67
2021/09/11 06:44:09;;;;;;;7.20;6.60;;;18.60;99.90;;;;;;5031805;28;20310;-67
2021/09/11 06:46:35;;;;;;;8.63;6.17;;;18.70;99.90;;;;;;5024779;28;20309;-67
2021/09/11 06:49:00;;;;;;;9.13;7.23;;;18.90;99.90;;;;;;5013457;28;20370;-66
2021/09/11 06:51:27;;;;;;;7.70;6.73;;;19.00;99.90;;;;;;5022020;28;20257;-67
2021/09/11 06:53:53;;;;;;;6.53;6.03;;;19.20;99.90;;;;;;5032999;28;20187;-67
2021/09/11 06:56:19;;;;;;;7.40;6.70;;;19.30;99.90;;;;;;5032406;28;20215;-66
2021/09/11 06:58:44;;;;;;;6.97;6.37;;;19.40;99.90;;;;;;5016273;28;20195;-67
2021/09/11 07:01:10;;;;;;;7.17;6.20;;;19.40;99.90;;;;;;5014269;28;20219;-67
2021/09/11 07:03:35;;;;;;;6.70;5.97;;;19.40;99.90;;;;;;5015268;28;20544;-67
2021/09/11 07:06:05;;;;;;;6.40;5.83;;;19.60;99.90;;;;;;5015683;28;20238;-69
2021/09/11 07:08:31;;;;;;;6.97;6.43;;;20.00;99.90;;;;;;5014793;28;20525;-67
2021/09/11 07:10:57;;;;;;;5.70;5.20;;;20.10;99.90;;;;;;5014069;28;20172;-66
2021/09/11 07:13:22;;;;;;;12.97;7.23;;;20.10;99.90;;;;;;5014577;28;20180;-67
2021/09/11 07:15:48;;;;;;;6.00;5.50;;;20.20;99.90;;;;;;5014594;28;20200;-68
2021/09/11 07:18:14;;;;;;;6.97;5.50;;;20.70;99.90;;;;;;5014140;28;20284;-67
2021/09/11 07:20:39;;;;;;;5.10;4.70;;;21.20;99.90;;;;;;5018200;28;20183;-67
2021/09/11 07:23:05;;;;;;;5.18;4.40;;;21.60;99.90;;;;;;5018329;28;20188;-67
2021/09/11 07:25:31;;;;;;;4.78;4.45;;;21.70;99.90;;;;;;5031665;28;20196;-67
2021/09/11 07:27:56;;;;;;;5.35;4.90;;;21.80;99.90;;;;;;5016703;28;20554;-68
2021/09/11 07:30:23;;;;;;;6.90;4.50;;;22.00;99.90;;;;;;5012788;28;20187;-65
2021/09/11 07:32:49;;;;;;;5.43;4.93;;;22.40;99.90;;;;;;5012201;28;20187;-67
2021/09/11 07:35:15;;;;;;;5.75;4.30;;;22.60;99.90;;;;;;5013969;28;20657;-67
2021/09/11 07:37:40;;;;;;;5.05;4.55;;;23.30;99.90;;;;;;5013795;28;20215;-68
2021/09/11 07:40:07;;;;;;;7.97;4.80;;;23.30;99.90;;;;;;5013226;28;20183;-65
2021/09/11 07:42:32;;;;;;;5.22;4.82;;;22.80;99.90;;;;;;5033029;28;20180;-66
2021/09/11 07:44:58;;;;;;;5.00;4.45;;;22.60;99.90;;;;;;5016663;28;20196;-66
2021/09/11 07:47:24;;;;;;;7.05;4.65;;;22.80;99.90;;;;;;5013972;28;20656;-67
2021/09/11 07:49:49;;;;;;;5.82;4.15;;;23.10;99.90;;;;;;5021222;28;20180;-67
2021/09/11 07:52:15;;;;;;;6.88;4.38;;;23.40;99.90;;;;;;5018598;28;20256;-66
2021/09/11 07:54:41;;;;;;;7.03;4.72;;;23.70;99.90;;;;;;5012144;28;20451;-67
2021/09/11 07:57:06;;;;;;;5.30;4.68;;;23.40;99.90;;;;;;5030561;28;20247;-66
2021/09/11 07:59:32;;;;;;;5.85;4.63;;;22.70;99.90;;;;;;5015986;28;20196;-67
2021/09/11 08:01:57;;;;;;;4.90;4.60;;;22.10;99.90;;;;;;5013513;28;20188;-67
2021/09/11 08:04:23;;;;;;;5.20;4.80;;;21.60;99.90;;;;;;5012509;28;20188;-66
2021/09/11 08:06:49;;;;;;;6.30;5.30;;;21.50;99.90;;;;;;5013240;28;20200;-66
2021/09/11 08:09:14;;;;;;;5.60;5.17;;;21.30;99.90;;;;;;5028009;28;20200;-69
2021/09/11 08:11:40;;;;;;;5.17;4.83;;;21.10;99.90;;;;;;5032493;28;20179;-67
2021/09/11 08:14:07;;;;;;;5.30;4.90;;;21.10;99.90;;;;;;5017972;28;20220;-66
2021/09/11 08:16:32;;;;;;;8.13;5.00;;;20.90;99.90;;;;;;5011459;28;20244;-67
2021/09/11 08:18:58;;;;;;;5.87;5.47;;;20.80;99.90;;;;;;5023901;28;20179;-67
2021/09/11 08:21:24;;;;;;;6.17;5.77;;;20.70;99.90;;;;;;5032493;28;20226;-68
2021/09/11 08:23:49;;;;;;;5.97;5.47;;;20.50;99.90;;;;;;5021285;28;20208;-66
2021/09/11 08:26:15;;;;;;;5.93;5.53;;;20.60;99.90;;;;;;5012645;28;20200;-65
2021/09/11 08:28:41;;;;;;;5.72;5.22;;;20.80;99.90;;;;;;5017402;28;20542;-67
2021/09/11 08:31:07;;;;;;;5.47;4.88;;;21.00;99.90;;;;;;5025825;28;20198;-66
2021/09/11 08:33:32;;;;;;;7.95;4.90;;;21.50;99.90;;;;;;5012706;28;20172;-67
2021/09/11 08:35:58;;;;;;;5.30;4.90;;;21.90;99.90;;;;;;5016199;28;20195;-66
2021/09/11 08:38:24;;;;;;;5.40;4.90;;;21.90;99.90;;;;;;5032567;28;20180;-69
2021/09/11 08:40:50;;;;;;;5.43;4.80;;;21.80;99.90;;;;;;5028157;28;20179;-67
2021/09/11 08:43:17;;;;;;;5.60;5.10;;;22.00;99.90;;;;;;5011996;28;20251;-67
2021/09/11 08:45:43;;;;;;;5.28;4.88;;;22.10;99.90;;;;;;5020773;28;20258;-67
2021/09/11 08:48:09;;;;;;;5.53;5.13;;;22.00;99.90;;;;;;5024298;28;20188;-67
2021/09/11 08:50:35;;;;;;;7.78;5.32;;;21.90;99.90;;;;;;5011970;28;20641;-67
2021/09/11 08:53:01;;;;;;;5.88;5.38;;;21.60;99.90;;;;;;5018403;28;20702;-66
2021/09/11 08:55:27;;;;;;;5.72;5.20;;;21.50;99.90;;;;;;5031971;28;20306;-66
2021/09/11 08:58:06;;;;;;;6.03;5.45;;;21.40;99.90;;;;;;5025841;28;20339;-66
2021/09/11 09:00:51;;;;;;;5.80;5.23;;;21.50;99.90;;;;;;5011895;28;20180;-66
2021/09/11 09:03:33;;;;;;;5.70;5.30;;;21.40;99.90;;;;;;5019202;28;20211;-68
2021/09/11 09:06:17;;;;;;;6.07;5.47;;;21.50;99.90;;;;;;5031770;28;20245;-65
2021/09/11 09:08:44;;;;;;;5.33;4.83;;;21.70;99.90;;;;;;5021383;28;20180;-66
2021/09/11 09:11:18;;;;;;;5.93;5.53;;;21.70;99.90;;;;;;5011858;28;20180;-68
2021/09/11 09:13:59;;;;;;;5.05;4.53;;;21.90;99.90;;;;;;5021475;28;20636;-66
2021/09/11 09:16:28;;;;;;;4.75;4.38;;;22.60;99.90;;;;;;5030389;28;20258;-67
2021/09/11 09:18:54;;;;;;;4.53;4.13;;;23.30;99.90;;;;;;5020799;28;20212;-63
2021/09/11 09:21:23;;;;;;;4.72;4.20;;;23.70;99.90;;;;;;5011609;28;20568;-64
2021/09/11 09:23:54;;;;;;;4.95;4.47;;;23.80;99.90;;;;;;5009554;28;20176;-64
2021/09/11 09:26:20;;;;;;;4.35;4.03;;;23.70;99.90;;;;;;5012067;28;20662;-64
2021/09/11 09:29:00;;;;;;;5.00;4.57;;;23.70;99.90;;;;;;5018618;28;20191;-64
2021/09/11 09:31:26;;;;;;;4.93;4.40;;;23.70;99.90;;;;;;5031487;28;20179;-64
2021/09/11 09:33:51;;;;;;;4.93;4.15;;;23.50;99.90;;;;;;5029933;28;20651;-63
2021/09/11 09:36:17;;;;;;;5.32;4.82;;;23.40;99.90;;;;;;5030325;28;20222;-64
2021/09/11 09:38:44;;;;;;;4.55;4.15;;;23.30;99.90;;;;;;5024128;28;20223;-64
2021/09/11 09:41:11;;;;;;;4.28;4.07;;;22.90;99.90;;;;;;5012013;28;20176;-64
2021/09/11 09:43:39;;;;;;;5.43;4.85;;;22.90;99.90;;;;;;5014443;28;20621;-63
2021/09/11 09:46:10;;;;;;;5.25;4.75;;;22.80;99.90;;;;;;5011788;28;20191;-65
2021/09/11 09:48:38;;;;;;;4.10;3.90;;;22.50;99.90;;;;;;5011652;28;20168;-63
2021/09/11 09:51:06;;;;;;;6.47;4.70;;;22.20;99.90;;;;;;4992144;28;20172;-64
2021/09/11 09:53:33;;;;;;;5.22;4.82;;;22.10;99.90;;;;;;5025742;28;20245;-64
2021/09/11 09:55:59;;;;;;;5.57;5.07;;;22.00;99.90;;;;;;5020242;28;20247;-64
2021/09/11 09:58:25;;;;;;;5.30;4.90;;;22.20;99.90;;;;;;5030697;28;20254;-63
2021/09/11 10:00:52;;;;;;;5.93;4.93;;;22.30;99.90;;;;;;5030631;28;20250;-64
2021/09/11 10:03:18;;;;;;;6.87;5.50;;;21.90;99.90;;;;;;5017311;28;20212;-63
2021/09/11 10:05:48;;;;;;;5.77;5.27;;;21.90;99.90;;;;;;5011322;28;20219;-64
2021/09/11 10:08:16;;;;;;;5.60;5.23;;;22.00;99.90;;;;;;5024354;28;20187;-63
2021/09/11 10:10:49;;;;;;;5.73;5.33;;;22.10;99.90;;;;;;5030556;28;20171;-63
2021/09/11 10:13:18;;;;;;;5.07;4.68;;;22.30;99.90;;;;;;5018634;28;20606;-64
2021/09/11 10:16:00;;;;;;;5.43;4.93;;;22.30;99.90;;;;;;5011057;28;20234;-64
2021/09/11 10:18:37;;;;;;;4.90;4.53;;;22.50;99.90;;;;;;5024594;28;20187;-64
2021/09/11 10:21:27;;;;;;;5.00;4.60;;;22.80;99.90;;;;;;5019193;28;20183;-64
2021/09/11 10:23:56;;;;;;;5.35;4.82;;;23.10;99.90;;;;;;5011271;28;20668;-63
2021/09/11 10:26:46;;;;;;;4.68;4.30;;;23.30;99.90;;;;;;5024329;28;20230;-64
2021/09/11 10:29:30;;;;;;;5.32;4.88;;;23.60;99.90;;;;;;5009926;28;20176;-65
2021/09/11 10:31:58;;;;;;;4.75;4.35;;;23.80;99.90;;;;;;5027929;28;20187;-65
2021/09/11 10:34:47;;;;;;;4.10;3.90;;;23.90;99.90;;;;;;5020695;28;20311;-63
2021/09/11 10:37:26;;;;;;;5.05;4.75;;;23.70;99.90;;;;;;5011979;28;20607;-65
2021/09/11 10:40:33;;;;;;;5.32;5.03;;;23.40;99.90;;;;;;5010845;28;20175;-63
2021/09/11 10:43:16;;;;;;;5.32;4.90;;;22.90;99.90;;;;;;4986397;28;20721;-64
2021/09/11 10:45:58;;;;;;;4.80;4.47;;;22.70;99.90;;;;;;5024199;28;20215;-65
2021/09/11 10:48:36;;;;;;;5.38;5.03;;;22.80;99.90;;;;;;5029886;28;20171;-64
2021/09/11 10:51:33;;;;;;;5.40;4.95;;;23.00;99.90;;;;;;5030663;28;20178;-64
2021/09/11 10:54:08;;;;;;;5.47;4.97;;;23.20;99.90;;;;;;5029013;28;20171;-63
2021/09/11 10:56:41;;;;;;;5.50;5.00;;;23.30;99.90;;;;;;5065137;22;20231;-66
2021/09/11 10:59:15;;;;;;;5.55;5.15;;;23.40;99.90;;;;;;5015201;28;20184;-67
2021/09/11 11:02:05;;;;;;;4.45;4.25;;;23.60;99.90;;;;;;5024974;28;20171;-67
2021/09/11 11:04:35;;;;;;;4.65;4.32;;;23.70;99.90;;;;;;5020968;28;20753;-67
2021/09/11 11:07:06;;;;;;;5.25;4.80;;;23.80;99.90;;;;;;5030449;28;20203;-67
2021/09/11 11:09:39;;;;;;;4.63;4.32;;;24.00;99.90;;;;;;5022591;28;20653;-66
2021/09/11 11:12:07;;;;;;;6.45;5.05;;;24.30;99.90;;;;;;5014446;28;20222;-66
2021/09/11 11:14:35;;;;;;;4.95;4.65;;;24.10;99.90;;;;;;5015367;28;20604;-67
2021/09/11 11:17:02;;;;;;;5.70;5.30;;;23.80;99.90;;;;;;5014015;28;20207;-66
2021/09/11 11:19:33;;;;;;;4.82;4.45;;;23.70;99.90;;;;;;5023683;28;20531;-67
2021/09/11 11:22:05;;;;;;;5.95;5.53;;;23.60;99.90;;;;;;5033960;28;20167;-67
2021/09/11 11:24:35;;;;;;;5.03;4.80;;;23.50;99.90;;;;;;5024159;28;20571;-66
2021/09/11 11:27:09;;;;;;;5.20;4.80;;;23.50;99.90;;;;;;5013933;28;20671;-67
2021/09/11 11:29:34;;;;;;;4.95;4.60;;;23.40;99.90;;;;;;5023816;28;20202;-67
2021/09/11 11:32:01;;;;;;;5.30;4.90;;;23.30;99.90;;;;;;5020091;28;20250;-67
2021/09/11 11:34:28;;;;;;;4.82;4.53;;;23.50;99.90;;;;;;5022344;28;20183;-68
2021/09/11 11:36:58;;;;;;;4.57;4.30;;;23.70;99.90;;;;;;5033401;28;20215;-67
2021/09/11 11:39:29;;;;;;;4.75;4.35;;;23.90;99.90;;;;;;5025263;28;20258;-67
2021/09/11 11:42:13;;;;;;;4.93;4.53;;;24.10;99.90;;;;;;5013953;28;20188;-67
2021/09/11 11:44:46;;;;;;;5.00;4.70;;;24.20;99.90;;;;;;4993462;28;20255;-67
2021/09/11 11:47:36;;;;;;;5.70;5.28;;;24.00;99.90;;;;;;4996922;28;20196;-68
2021/09/11 11:50:17;;;;;;;5.15;4.82;;;24.00;99.90;;;;;;4993815;28;20169;-67
2021/09/11 11:52:44;;;;;;;4.95;4.65;;;24.30;99.90;;;;;;5004393;28;20180;-65
2021/09/11 11:55:11;;;;;;;5.15;4.75;;;24.20;99.90;;;;;;5033509;28;20676;-66
2021/09/11 11:57:38;;;;;;;5.13;4.68;;;24.00;99.90;;;;;;5029323;28;20219;-66
2021/09/11 12:00:07;;;;;;;5.45;4.85;;;23.90;99.90;;;;;;5013591;28;20540;-66
2021/09/11 12:02:35;;;;;;;5.70;5.18;;;24.00;99.90;;;;;;5015958;28;20184;-67
2021/09/11 12:05:18;;;;;;;4.75;4.45;;;24.00;99.90;;;;;;5032932;28;20167;-65
2021/09/11 12:07:59;;;;;;;4.72;4.43;;;23.90;99.90;;;;;;5029460;28;20253;-67
2021/09/11 12:10:27;;;;;;;5.03;4.65;;;23.90;99.90;;;;;;5012992;28;20180;-66
2021/09/11 12:13:04;;;;;;;5.22;4.78;;;24.00;99.90;;;;;;5017075;28;20171;-67
2021/09/11 12:15:31;;;;;;;5.20;4.75;;;24.00;99.90;;;;;;5032471;28;20194;-66
2021/09/11 12:18:01;;;;;;;5.40;4.93;;;23.80;99.90;;;;;;5028112;28;20203;-67
2021/09/11 12:20:29;;;;;;;4.90;4.60;;;23.80;99.90;;;;;;5012942;28;20179;-66
2021/09/11 12:23:19;;;;;;;5.30;4.90;;;23.60;99.90;;;;;;5015986;28;20489;-66
2021/09/11 12:26:07;;;;;;;5.32;4.82;;;23.50;99.90;;;;;;5032461;28;20188;-66
2021/09/11 12:29:06;;;;;;;4.88;4.55;;;23.40;99.90;;;;;;5024453;28;20188;-66
2021/09/11 12:31:33;;;;;;;5.60;5.20;;;23.30;99.90;;;;;;5021016;28;20516;-65
2021/09/11 12:34:04;;;;;;;4.90;4.60;;;23.20;99.90;;;;;;5032542;28;20171;-66
2021/09/11 12:36:37;;;;;;;5.35;4.95;;;23.40;99.90;;;;;;5024553;28;20204;-66
2021/09/11 12:39:15;;;;;;;5.30;4.80;;;23.50;99.90;;;;;;5012956;28;20222;-67
2021/09/11 12:41:42;;;;;;;6.53;4.63;;;23.60;99.90;;;;;;5021152;28;20179;-66